createdAt,value
2018-04-23T00:00:07.465Z,6.57
2018-04-23T00:05:10.614Z,7.67
2018-04-23T00:10:13.967Z,15.57
2018-04-23T00:15:17.180Z,8.40
2018-04-23T00:20:20.740Z,8.20
2018-04-23T00:25:23.512Z,9.70
2018-04-23T00:30:26.268Z,9.00
2018-04-23T00:35:30.206Z,8.80
2018-04-23T00:40:32.963Z,10.20
2018-04-23T00:45:36.576Z,10.97
2018-04-23T00:50:40.169Z,9.73
2018-04-23T00:55:44.060Z,10.63
2018-04-23T01:00:46.946Z,12.57
2018-04-23T01:05:50.612Z,9.90
2018-04-23T01:10:54.241Z,16.90
2018-04-23T01:15:57.836Z,13.80
2018-04-23T01:21:00.862Z,17.67
2018-04-23T01:26:04.959Z,25.30
2018-04-23T01:31:08.063Z,15.13
2018-04-23T01:36:11.639Z,14.57
2018-04-23T01:41:14.391Z,18.90
2018-04-23T01:46:17.335Z,14.53
2018-04-23T01:51:22.139Z,29.50
2018-04-23T01:56:25.178Z,33.20
2018-04-23T02:01:28.570Z,34.30
2018-04-23T02:06:32.091Z,26.70
2018-04-23T02:11:35.078Z,33.07
2018-04-23T02:16:37.982Z,38.90
2018-04-23T02:21:41.440Z,47.80
2018-04-23T02:26:45.418Z,20.23
2018-04-23T02:31:48.927Z,23.17
2018-04-23T02:36:52.352Z,16.53
2018-04-23T02:41:55.760Z,20.43
2018-04-23T02:46:58.795Z,19.80
2018-04-23T02:52:01.567Z,19.80
2018-04-23T02:57:04.369Z,23.57
2018-04-23T03:02:07.130Z,31.10
2018-04-23T03:07:10.975Z,30.00
2018-04-23T03:12:13.754Z,27.63
2018-04-23T03:17:17.011Z,30.73
2018-04-23T03:22:21.096Z,38.90
2018-04-23T03:27:23.879Z,28.37
2018-04-23T03:32:26.736Z,43.57
2018-04-23T03:37:31.519Z,40.13
2018-04-23T03:42:34.370Z,41.73
2018-04-23T03:47:38.248Z,39.10
2018-04-23T03:52:41.241Z,49.03
2018-04-23T03:57:44.046Z,73.20
2018-04-23T04:02:48.161Z,58.00
2018-04-23T04:07:51.213Z,84.93
2018-04-23T04:16:09.600Z,81.33
2018-04-23T04:21:12.386Z,90.90
2018-04-23T04:26:15.446Z,104.77
2018-04-23T04:31:18.284Z,99.57
2018-04-23T04:36:21.047Z,108.53
2018-04-23T04:41:25.158Z,113.10
2018-04-23T04:46:28.663Z,116.20
2018-04-23T04:51:31.464Z,124.90
2018-04-23T04:56:35.850Z,134.60
2018-04-23T05:01:38.607Z,137.63
2018-04-23T05:06:41.382Z,131.27
2018-04-23T05:11:44.211Z,134.90
2018-04-23T05:16:46.964Z,138.13
2018-04-23T05:21:49.718Z,121.07
2018-04-23T05:26:54.302Z,120.57
2018-04-23T05:31:57.621Z,129.90
2018-04-23T05:37:00.415Z,128.47
2018-04-23T05:42:03.815Z,128.33
2018-04-23T05:47:06.590Z,130.07
2018-04-23T05:52:12.968Z,111.63
2018-04-23T05:57:17.097Z,128.77
2018-04-23T06:02:19.858Z,110.73
2018-04-23T06:07:22.630Z,120.30
2018-04-23T06:12:25.423Z,128.47
2018-04-23T06:17:28.496Z,121.53
2018-04-23T06:22:31.248Z,102.27
2018-04-23T06:27:34.006Z,113.10
2018-04-23T06:32:36.780Z,113.17
2018-04-23T06:37:39.618Z,108.20
2018-04-23T06:42:42.860Z,101.10
2018-04-23T06:47:45.660Z,70.80
2018-04-23T06:52:48.439Z,61.97
2018-04-23T06:57:51.612Z,55.87
2018-04-23T07:02:55.943Z,46.80
2018-04-23T07:07:58.718Z,44.07
2018-04-23T07:13:01.565Z,41.33
2018-04-23T07:18:04.401Z,25.63
2018-04-23T07:23:07.282Z,22.50
2018-04-23T07:28:10.381Z,22.30
2018-04-23T07:33:13.402Z,20.67
2018-04-23T07:38:16.175Z,21.23
2018-04-23T07:43:19.676Z,20.70
2018-04-23T07:48:22.568Z,18.63
2018-04-23T07:53:25.415Z,19.40
2018-04-23T07:58:28.494Z,17.13
2018-04-23T08:03:31.388Z,11.80
2018-04-23T08:08:34.221Z,6.63
2018-04-23T08:13:37.038Z,5.63
2018-04-23T08:18:39.778Z,5.20
2018-04-23T08:23:42.555Z,4.60
2018-04-23T08:28:45.338Z,5.03
2018-04-23T08:33:48.119Z,3.97
2018-04-23T08:38:50.884Z,3.93
2018-04-23T08:43:54.133Z,4.53
2018-04-23T08:48:56.956Z,5.17
2018-04-23T08:53:59.827Z,4.87
2018-04-23T08:59:02.657Z,5.07
2018-04-23T09:04:05.552Z,5.40
2018-04-23T09:09:08.331Z,6.60
2018-04-23T09:14:11.399Z,6.73
2018-04-23T09:19:14.191Z,6.50
2018-04-23T09:24:16.956Z,7.83
2018-04-23T09:29:20.055Z,6.70
2018-04-23T09:34:22.888Z,6.27
2018-04-23T09:39:25.710Z,4.87
2018-04-23T09:44:28.601Z,5.27
2018-04-23T09:49:31.289Z,3.53
2018-04-23T09:54:34.287Z,3.07
2018-04-23T09:59:37.067Z,4.50
2018-04-23T10:04:39.831Z,3.50
2018-04-23T10:09:42.607Z,3.53
2018-04-23T10:14:45.484Z,3.07
2018-04-23T10:19:48.264Z,3.20
2018-04-23T10:24:51.040Z,2.90
2018-04-23T10:29:53.807Z,3.00
2018-04-23T10:34:56.512Z,4.00
2018-04-23T10:39:59.268Z,5.17
2018-04-23T10:45:02.098Z,4.43
2018-04-23T10:50:04.960Z,3.20
2018-04-23T10:55:07.750Z,3.73
2018-04-23T11:00:10.822Z,3.50
2018-04-23T11:05:15.395Z,5.20
2018-04-23T11:10:18.181Z,5.80
2018-04-23T11:15:21.017Z,8.40
2018-04-23T11:20:23.807Z,9.13
2018-04-23T11:25:27.462Z,11.43
2018-04-23T11:30:30.818Z,11.23
2018-04-23T11:35:34.011Z,7.50
2018-04-23T11:40:41.984Z,10.40
2018-04-23T11:45:45.672Z,9.80
2018-04-23T11:50:48.442Z,7.37
2018-04-23T11:55:53.667Z,7.70
2018-04-23T12:01:00.800Z,8.40
2018-04-23T12:06:03.693Z,9.93
2018-04-23T12:11:06.596Z,10.40
2018-04-23T12:16:09.401Z,9.90
2018-04-23T12:21:12.169Z,10.20
2018-04-23T12:26:14.922Z,9.20
2018-04-23T12:31:17.746Z,8.30
2018-04-23T12:36:20.553Z,7.57
2018-04-23T12:41:23.312Z,5.10
2018-04-23T12:46:26.378Z,5.47
2018-04-23T12:51:29.160Z,6.20
2018-04-23T12:56:32.256Z,7.10
2018-04-23T13:01:35.132Z,7.13
2018-04-23T13:06:37.963Z,7.63
2018-04-23T13:11:40.737Z,7.53
2018-04-23T13:16:43.536Z,6.97
2018-04-23T13:21:46.315Z,6.80
2018-04-23T13:26:49.090Z,7.17
2018-04-23T13:31:52.081Z,7.17
2018-04-23T13:36:54.890Z,5.83
2018-04-23T13:41:57.720Z,7.77
2018-04-23T13:47:00.592Z,7.10
2018-04-23T13:52:03.435Z,6.20
2018-04-23T13:57:06.250Z,5.67
2018-04-23T14:02:10.523Z,5.70
2018-04-23T14:07:13.346Z,5.60
2018-04-23T14:12:16.558Z,6.07
2018-04-23T14:17:19.419Z,5.63
2018-04-23T14:22:22.246Z,6.53
2018-04-23T14:27:25.115Z,6.60
2018-04-23T14:32:28.722Z,6.80
2018-04-23T14:37:32.412Z,6.40
2018-04-23T14:42:36.331Z,5.20
2018-04-23T14:47:43.121Z,4.20
2018-04-23T14:52:46.663Z,4.47
2018-04-23T14:57:49.714Z,4.63
2018-04-23T15:02:53.143Z,5.20
2018-04-23T15:07:56.072Z,5.43
2018-04-23T15:12:58.922Z,3.67
2018-04-23T15:18:01.946Z,4.60
2018-04-23T15:23:05.002Z,5.73
2018-04-23T15:28:09.273Z,5.43
2018-04-23T15:33:13.167Z,4.47
2018-04-23T15:38:16.440Z,6.20
2018-04-23T15:43:19.489Z,3.47
2018-04-23T15:48:22.789Z,5.03
2018-04-23T15:53:25.750Z,3.90
2018-04-23T15:58:29.693Z,3.80
2018-04-23T16:03:33.211Z,5.10
2018-04-23T16:08:36.383Z,5.20
2018-04-23T16:13:39.460Z,6.63
2018-04-23T16:18:42.533Z,4.90
2018-04-23T16:23:45.798Z,4.57
2018-04-23T16:28:52.781Z,4.83
2018-04-23T16:34:08.395Z,4.80
2018-04-23T16:39:17.421Z,5.10
2018-04-23T16:44:27.167Z,5.50
2018-04-23T16:49:30.422Z,4.70
2018-04-23T16:54:38.845Z,4.00
2018-04-23T16:59:46.522Z,4.80
2018-04-23T17:04:51.869Z,5.00
2018-04-23T17:20:49.282Z,5.10
2018-04-23T17:26:01.578Z,6.10
2018-04-23T17:36:43.953Z,8.33
2018-04-23T17:42:03.801Z,6.23
2018-04-23T17:47:13.517Z,5.17
2018-04-23T17:52:21.396Z,5.53
2018-04-23T17:57:28.361Z,6.80
2018-04-23T18:02:32.810Z,7.30
2018-04-23T18:07:43.267Z,7.13
2018-04-23T18:12:51.115Z,5.87
2018-04-23T18:17:56.616Z,6.03
2018-04-23T18:23:04.840Z,6.60
2018-04-23T18:28:13.610Z,6.17
2018-04-23T18:33:18.325Z,6.50
2018-04-23T18:38:23.417Z,6.90
2018-04-23T18:43:34.359Z,8.90
2018-04-23T18:48:40.642Z,8.87
2018-04-23T18:53:48.567Z,8.07
2018-04-23T18:58:58.943Z,8.57
2018-04-23T19:04:14.590Z,7.87
2018-04-23T19:09:41.568Z,7.13
2018-04-23T19:14:49.118Z,7.50
2018-04-23T19:19:54.717Z,6.87
2018-04-23T19:25:19.194Z,9.43
2018-04-23T19:30:23.983Z,11.33
2018-04-23T19:35:30.331Z,10.30
2018-04-23T19:40:34.195Z,8.80
2018-04-23T19:45:39.163Z,9.97
2018-04-23T19:50:49.033Z,10.27
2018-04-23T19:55:55.847Z,11.93
2018-04-23T20:01:02.259Z,9.43
2018-04-23T20:06:06.737Z,11.77
2018-04-23T20:11:12.892Z,12.50
2018-04-23T20:16:17.129Z,12.17
2018-04-23T20:21:24.061Z,12.50
2018-04-23T20:26:29.034Z,11.30
2018-04-23T20:31:33.976Z,11.73
2018-04-23T20:36:39.001Z,10.83
2018-04-23T20:41:42.407Z,11.60
2018-04-23T20:46:46.860Z,10.20
2018-04-23T20:51:50.058Z,8.93
2018-04-23T20:56:54.192Z,11.90
2018-04-23T21:01:57.906Z,11.70
2018-04-23T21:07:01.356Z,10.73
2018-04-23T21:12:04.734Z,10.60
2018-04-23T21:17:08.713Z,11.30
2018-04-23T21:22:11.944Z,10.73
2018-04-23T21:27:15.079Z,9.77
2018-04-23T21:32:18.377Z,11.80
2018-04-23T21:37:21.854Z,11.00
2018-04-23T21:42:26.545Z,10.70
2018-04-23T21:47:29.577Z,10.10
2018-04-23T21:52:32.830Z,9.57
2018-04-23T21:57:36.125Z,8.17
2018-04-23T22:02:39.085Z,10.40
2018-04-23T22:07:42.250Z,10.33
2018-04-23T22:12:46.225Z,10.33
2018-04-23T22:17:49.456Z,11.20
2018-04-23T22:22:52.247Z,9.27
2018-04-23T22:27:56.248Z,10.97
2018-04-23T22:32:59.509Z,10.10
2018-04-23T22:38:02.961Z,10.17
2018-04-23T22:43:05.784Z,10.23
2018-04-23T22:48:08.583Z,8.27
2018-04-23T22:53:11.532Z,8.60
2018-04-23T22:58:15.739Z,7.87
2018-04-23T23:03:49.725Z,9.07
2018-04-23T23:08:53.754Z,9.30
2018-04-23T23:13:57.162Z,10.93
2018-04-23T23:18:59.971Z,8.87
2018-04-23T23:24:02.853Z,7.50
2018-04-23T23:29:05.674Z,7.63
2018-04-23T23:34:09.082Z,7.27
2018-04-23T23:39:12.278Z,9.03
2018-04-23T23:44:15.092Z,9.40
2018-04-23T23:49:17.897Z,12.63
2018-04-23T23:54:21.355Z,10.53
2018-04-23T23:59:24.476Z,8.77
